Terminal Aerodrome Forecast
Issued by NWS Cleveland, OH

Home | Current Version | Previous Version | Text Only | Print | Product List | Glossary On
Versions: 1 2 3 4 5 6 7 8 9 10 11 12 13 14 15 16 17 18 19 20 21
667
FTUS41 KCLE 231733
TAFYNG
TAF
KYNG 231733Z 2318/2418 21010G15KT P6SM OVC015
      TEMPO 2318/2320 SCT015
     FM240000 24006KT 4SM -SHRA BR OVC025
     FM240500 10005KT 4SM -DZ BR OVC005
     FM240800 14006KT 4SM BR SCT025
     FM241300 18010KT P6SM SCT025
     FM241500 20015G25KT P6SM SCT025=

USA.gov is the U.S. government's official web portal to all federal, state and local government web resources and services.